KTBR/TBR METAR and TAF weather

Enter ICAO airport designator
Station Type Date Time Source
KTBR METAR 2019/06/26 15:55 UTC NOAA

KTBR 261555Z AUTO 35008KT 10SM CLR 30/19 A3015 RMK AO2 T02950192


Station Type Date Time Source
KTBR Decoded METAR 2019/06/26 15:55 UTC NOAA

Statesboro, Statesboro-Bulloch County Airport, GA, United States (KTBR) 32-28-59N 081-44-14W
Jun 26, 2019 - 11:55 AM EDT / 2019.06.26 1555 UTC
Wind: from the N (350 degrees) at 9 MPH (8 KT):0
Visibility: 10 mile(s):0
Sky conditions: clear
Temperature: 85.1 F (29.5 C)
Dew Point: 66.6 F (19.2 C)
Relative Humidity: 53%
Pressure (altimeter): 30.15 in. Hg (1020 hPa)
ob: KTBR 261555Z AUTO 35008KT 10SM CLR 30/19 A3015 RMK AO2 T02950192
cycle: 16

Station Type Date Time Source
KTBR TAF UTC NOAA

Error!

Example: see airport list